Map

Track Data

SID SEASON NUMBER BASIN SUBBASIN NAME ISO_TIME NATURE LAT LON WMO_WIND WMO_PRES WMO_AGENCY TRACK_TYPE DIST2LAND LANDFALL IFLAG USA_AGENCY USA_ATCF_ID USA_LAT USA_LON USA_RECORD USA_STATUS USA_WIND USA_PRES USA_SSHS USA_R34_NE USA_R34_SE USA_R34_SW USA_R34_NW USA_R50_NE USA_R50_SE USA_R50_SW USA_R50_NW USA_R64_NE USA_R64_SE USA_R64_SW USA_R64_NW USA_POCI USA_ROCI USA_RMW USA_EYE TOKYO_LAT TOKYO_LON TOKYO_GRADE TOKYO_WIND TOKYO_PRES TOKYO_R50_DIR TOKYO_R50_LONG TOKYO_R50_SHORT TOKYO_R30_DIR TOKYO_R30_LONG TOKYO_R30_SHORT TOKYO_LAND CMA_LAT CMA_LON CMA_CAT CMA_WIND CMA_PRES HKO_LAT HKO_LON HKO_CAT HKO_WIND HKO_PRES NEWDELHI_LAT NEWDELHI_LON NEWDELHI_GRADE NEWDELHI_WIND NEWDELHI_PRES NEWDELHI_CI NEWDELHI_DP NEWDELHI_POCI REUNION_LAT REUNION_LON REUNION_TYPE REUNION_WIND REUNION_PRES REUNION_TNUM REUNION_CI REUNION_RMW REUNION_R34_NE REUNION_R34_SE REUNION_R34_SW REUNION_R34_NW REUNION_R50_NE REUNION_R50_SE REUNION_R50_SW REUNION_R50_NW REUNION_R64_NE REUNION_R64_SE REUNION_R64_SW REUNION_R64_NW BOM_LAT BOM_LON BOM_TYPE BOM_WIND BOM_PRES BOM_TNUM BOM_CI BOM_RMW BOM_R34_NE BOM_R34_SE BOM_R34_SW BOM_R34_NW BOM_R50_NE BOM_R50_SE BOM_R50_SW BOM_R50_NW BOM_R64_NE BOM_R64_SE BOM_R64_SW BOM_R64_NW BOM_ROCI BOM_POCI BOM_EYE BOM_POS_METHOD BOM_PRES_METHOD NADI_LAT NADI_LON NADI_CAT NADI_WIND NADI_PRES WELLINGTON_LAT WELLINGTON_LON WELLINGTON_WIND WELLINGTON_PRES DS824_LAT DS824_LON DS824_STAGE DS824_WIND DS824_PRES TD9636_LAT TD9636_LON TD9636_STAGE TD9636_WIND TD9636_PRES TD9635_LAT TD9635_LON TD9635_WIND TD9635_PRES TD9635_ROCI NEUMANN_LAT NEUMANN_LON NEUMANN_CLASS NEUMANN_WIND NEUMANN_PRES MLC_LAT MLC_LON MLC_CLASS MLC_WIND MLC_PRES USA_GUST BOM_GUST BOM_GUST_PER REUNION_GUST REUNION_GUST_PER USA_SEAHGT USA_SEARAD_NE USA_SEARAD_SE USA_SEARAD_SW USA_SEARAD_NW STORM_SPEED STORM_DIR
1899035S15139 1899 6 SP EA NOT_NAMED 1899-02-03 12:00:00 NR -14.9000 138.600 main 174 171 __________O___ -1 -14.9000 138.600 7 3 132
1899035S15139 1899 6 SP EA NOT_NAMED 1899-02-03 15:00:00 NR -15.0016 138.716 main 171 170 __________P___ -1 -15.0016 138.716 7 3 132
1899035S15139 1899 6 SP EA NOT_NAMED 1899-02-03 18:00:00 NR -15.1025 138.835 main 170 170 __________P___ -1 -15.1025 138.835 7 3 130
1899035S15139 1899 6 SP EA NOT_NAMED 1899-02-03 21:00:00 NR -15.2022 138.962 main 178 171 __________P___ -1 -15.2022 138.962 7 3 128
1899035S15139 1899 6 SP EA NOT_NAMED 1899-02-04 00:00:00 NR -15.3000 139.100 main 176 169 __________O___ -1 -15.3000 139.100 7 3 125
1899035S15139 1899 6 SP EA NOT_NAMED 1899-02-04 03:00:00 NR -15.3960 139.251 main 170 159 __________P___ -1 -15.3960 139.251 7 4 123
1899035S15139 1899 6 SP EA NOT_NAMED 1899-02-04 06:00:00 NR -15.4925 139.408 main 162 154 __________P___ -1 -15.4925 139.408 7 4 123
1899035S15139 1899 6 SP EA NOT_NAMED 1899-02-04 09:00:00 NR -15.5928 139.560 main 158 148 __________P___ -1 -15.5928 139.560 7 4 126
1899035S15139 1899 6 SP EA NOT_NAMED 1899-02-04 12:00:00 NR -15.7000 139.700 main 153 148 __________O___ -1 -15.7000 139.700 7 3 134
1899035S15139 1899 6 SP EA NOT_NAMED 1899-02-04 15:00:00 NR -15.8259 139.810 main 148 134 __________P___ -1 -15.8259 139.810 7 3 143
1899035S15139 1899 6 SP EA NOT_NAMED 1899-02-04 18:00:00 NR -15.9574 139.908 main 134 131 __________P___ -1 -15.9574 139.908 7 3 145
1899035S15139 1899 6 SP EA NOT_NAMED 1899-02-04 21:00:00 NR -16.0853 140.001 main 131 130 __________P___ -1 -16.0853 140.001 7 3 142
1899035S15139 1899 6 SP EA NOT_NAMED 1899-02-05 00:00:00 NR -16.2000 140.100 main 130 115 __________O___ -1 -16.2000 140.100 7 3 133
1899035S15139 1899 6 SP EA NOT_NAMED 1899-02-05 03:00:00 NR -16.2853 140.218 main 115 100 __________P___ -1 -16.2853 140.218 7 3 124
1899035S15139 1899 6 SP EA NOT_NAMED 1899-02-05 06:00:00 NR -16.3575 140.343 main 100 81 __________P___ -1 -16.3575 140.343 7 3 120
1899035S15139 1899 6 SP EA NOT_NAMED 1899-02-05 09:00:00 NR -16.4259 140.471 main 81 67 __________P___ -1 -16.4259 140.471 7 3 120
1899035S15139 1899 6 SP EA NOT_NAMED 1899-02-05 12:00:00 NR -16.5000 140.600 main 67 54 __________O___ -1 -16.5000 140.600 7 2 127
1899035S15139 1899 6 SP EA NOT_NAMED 1899-02-05 15:00:00 NR -16.5639 140.665 main 54 54 __________P___ -1 -16.5639 140.665 7 2 137
1899035S15139 1899 6 SP EA NOT_NAMED 1899-02-05 18:00:00 NR -16.6391 140.739 main 54 30 __________P___ -1 -16.6391 140.739 7 3 133
1899035S15139 1899 6 SP EA NOT_NAMED 1899-02-05 21:00:00 NR -16.7449 140.868 main 30 0 __________P___ -1 -16.7449 140.868 7 4 127
1899035S15139 1899 6 SP EA NOT_NAMED 1899-02-06 00:00:00 NR -16.9000 141.100 main 0 0 __________O___ -1 -16.9000 141.100 7 7 122
1899035S15139 1899 6 SP EA NOT_NAMED 1899-02-06 03:00:00 NR -17.1131 141.492 main 0 0 __________P___ -1 -17.1131 141.492 7 10 119
1899035S15139 1899 6 SP EA NOT_NAMED 1899-02-06 06:00:00 NR -17.3758 141.987 main 0 0 __________P___ -1 -17.3758 141.987 7 11 119
1899035S15139 1899 6 SP EA NOT_NAMED 1899-02-06 09:00:00 NR -17.6755 142.539 main 0 0 __________P___ -1 -17.6755 142.539 7 12 120
1899035S15139 1899 6 SP EA NOT_NAMED 1899-02-06 12:00:00 NR -18.0000 143.100 main 0 0 __________O___ -1 -18.0000 143.100 7 12 123
1899035S15139 1899 6 SP EA NOT_NAMED 1899-02-06 15:00:00 NR -18.3390 143.632 main 0 0 __________P___ -1 -18.3390 143.632 7 12 125
1899035S15139 1899 6 SP EA NOT_NAMED 1899-02-06 18:00:00 NR -18.6877 144.136 main 0 0 __________P___ -1 -18.6877 144.136 7 12 127
1899035S15139 1899 6 SP EA NOT_NAMED 1899-02-06 21:00:00 NR -19.0426 144.622 main 0 0 __________P___ -1 -19.0426 144.622 7 12 128
1899035S15139 1899 6 SP EA NOT_NAMED 1899-02-07 00:00:00 NR -19.4000 145.100 main 0 __________O___ -1 -19.4000 145.100 7 12 128

Digital Typhoon Data and Search

About IBTrACS Database

This database is a web-friendly format of International Best Track Archive for Climate Stewardship (IBTrACS), a global best track data archive curated by NOAA dating back to 1842.

Updated: 2021-12-06